Terminal Aerodrome Forecast
Issued by NWS

Home | Current Version | Previous Version | Text Only | Print | Product List | Glossary On
Versions: 1 2 3 4 5 6 7 8 9 10 11 12 13
000
FTUS45 KGJT 241721
TAFCNY
TAF
KCNY 241721Z 2418/2518 31003KT P6SM BKN250
     FM242100 29009KT P6SM FEW130 FEW250
     FM250000 32006KT P6SM FEW140 FEW250
     FM250400 00000KT P6SM FEW140 FEW250=

USA.gov is the U.S. government's official web portal to all federal, state and local government web resources and services.